• Join FlightAware (Why Join?)
  • Login
  • US Flag 
12:53AM EST


 

Airport Tracker/Info


-or-


 

Live Flight TrackerFlight Track Log ✈ SKW2953 ✈ 24-Apr-2012 ✈ KGJT - KPHX

Flight Track Log - Related Links

Times and Time Zones

All times are in EDT time to prevent confusion due to time zone crossing. See the SKW2953 flight status page for this flight to view local times or setup timezone preferences in your user account.

Time Position Orientation Groundspeed Altitude Reporting Facility
EDT Latitude Longitude Course Direction KTS MPH feet Rate Location/Type
08:29PM 39.1333 -108.5667 284° West 162 186 6,200  Level Denver TRACON
08:30PM 39.1500 -108.6500 219° Southwest 227 261 8,400 1,740 Climbing Denver TRACON
08:32PM 39.0814 -108.7228 185° South 217 250 10,900 1,680 Climbing Denver Center
08:33PM 38.9914 -108.7331 188° South 283 326 12,800 1,980 Climbing Denver Center
08:34PM 38.9036 -108.7489 185° South 311 358 14,900 1,800 Climbing Denver Center
08:35PM 38.8158 -108.7594 181° South 322 371 16,500 1,500 Climbing Denver Center
08:36PM 38.7325 -108.7619 188° South 328 377 18,000 1,560 Climbing Denver Center
08:37PM 38.6278 -108.7797 185° South 340 391 19,700 1,500 Climbing Denver Center
08:38PM 38.5294 -108.7897 184° South 356 410 21,100 1,260 Climbing Denver Center
08:39PM 38.4253 -108.7997 186° South 369 425 22,300 960 Climbing Denver Center
08:40PM 38.3289 -108.8125 185° South 375 432 23,100 840 Climbing Denver Center
08:41PM 38.2056 -108.8267 184° South 405 466 24,000 900 Climbing Denver Center
08:42PM 38.0928 -108.8361 186° South 413 475 24,900 1,080 Climbing Denver Center
08:43PM 37.9778 -108.8508 185° South 414 476 26,200 1,200 Climbing Denver Center
08:44PM 37.8672 -108.8631 184° South 414 476 27,300 1,080 Climbing Denver Center
08:45PM 37.7544 -108.8722 186° South 414 476 28,400 840 Climbing Denver Center
08:46PM 37.6497 -108.8872 184° South 414 476 29,000 300 Climbing Denver Center
08:47PM 37.5203 -108.8986 185° South 426 490 29,000 60 Level Denver Center
08:48PM 37.3972 -108.9128 185° South 444 511 29,200 480 Climbing Denver Center
08:49PM 37.2822 -108.9244 185° South 451 519 30,000 360 Climbing Denver Center
08:50PM 37.1589 -108.9383 184° South 457 526 30,000  Level Denver Center
08:51PM 37.0189 -108.9519 185° South 462 532 30,000  Level Denver Center
08:52PM 36.8917 -108.9658 185° South 462 532 30,000  Level Denver Center
08:53PM 36.7767 -108.9775 185° South 462 532 30,000  Level Denver Center
08:54PM 36.6492 -108.9911 185° South 462 532 30,000  Level Denver Center
08:55PM 36.5136 -109.0044 184° South 462 532 30,000  Level Denver Center
08:57PM 36.2656 -109.0281 184° South 491 565 30,000  Level Albuquerque Center
08:58PM 36.1528 -109.0383 184° South 463 533 30,000  Level Albuquerque Center
08:59PM 36.0128 -109.0508 185° South 458 527 30,000  Level Albuquerque Center
09:00PM 35.8875 -109.0636 184° South 463 533 30,000  Level Albuquerque Center
09:01PM 35.7747 -109.0739 184° South 463 533 30,000  Level Albuquerque Center
09:02PM 35.6347 -109.0864 185° South 463 533 30,000  Level Albuquerque Center
09:03PM 35.5072 -109.1014 221° Southwest 463 533 30,000  Level Albuquerque Center
09:04PM 35.4286 -109.1839 255° West 406 467 30,000  Level Albuquerque Center
09:05PM 35.3994 -109.3181 260° West 400 460 30,000  Level Albuquerque Center
09:06PM 35.3781 -109.4706 261° West 416 479 30,000  Level Albuquerque Center
09:07PM 35.3611 -109.6050 262° West 416 479 30,000  Level Albuquerque Center
09:08PM 35.3461 -109.7294 262° West 410 472 30,000  Level Albuquerque Center
09:09PM 35.3308 -109.8664 262° West 410 472 30,000  Level Albuquerque Center
09:10PM 35.3128 -110.0186 262° West 410 472 30,000  Level Albuquerque Center
09:11PM 35.2972 -110.1531 264° West 410 472 30,000  Level Albuquerque Center
09:12PM 35.2861 -110.2772 262° West 410 472 30,000 -300 Level Albuquerque Center
09:13PM 35.2703 -110.4117 263° West 410 472 29,400 -900 Descending Albuquerque Center
09:14PM 35.2536 -110.5686 265° West 410 472 28,200 -1,080 Descending Albuquerque Center
09:15PM 35.2436 -110.7056 264° West 415 478 27,300 -960 Descending Albuquerque Center
09:16PM 35.2336 -110.8297 253° West 410 472 26,300 -960 Descending Albuquerque Center
09:17PM 35.2008 -110.9581 249° West 405 466 25,400 -1,020 Descending Albuquerque Center
09:18PM 35.1567 -111.1008 248° West 405 466 24,300 -720 Descending Albuquerque Center
09:19PM 35.1150 -111.2283 249° West 410 472 24,000 -180 Descending Albuquerque Center
09:20PM 35.0756 -111.3533 248° West 405 466 24,000  Level Albuquerque Center
09:21PM 35.0383 -111.4683 231° Southwest 405 466 24,000  Level Albuquerque Center
09:22PM 34.9700 -111.5714 227° Southwest 400 460 24,000  Level Albuquerque Center
09:23PM 34.8869 -111.6783 225° Southwest 405 466 24,000  Level Albuquerque Center
09:24PM 34.8083 -111.7728 226° Southwest 405 466 24,000  Level Albuquerque Center
09:25PM 34.7294 -111.8722 226° Southwest 400 460 24,000 -660 Level Albuquerque Center
09:26PM 34.6528 -111.9689 227° Southwest 405 466 22,700 -1,440 Descending Albuquerque Center
09:27PM 34.5825 -112.0608 226° Southwest 399 459 21,200 -1,500 Descending Albuquerque Center
09:28PM 34.5186 -112.1403 221° Southwest 366 421 19,700 -1,620 Descending Albuquerque Center
09:29PM 34.4467 -112.2167 176° South 354 407 18,000 -1,500 Descending Albuquerque Center
09:30PM 34.3594 -112.2092 170° South 303 349 16,800 -1,140 Descending Albuquerque Center
09:31PM 34.2789 -112.1919 167° South 303 349 15,800 -1,200 Descending Albuquerque Center
09:32PM 34.1900 -112.1667 168° South 318 366 14,500 -1,260 Descending Albuquerque Center
09:33PM 34.1053 -112.1442 167° South 324 373 13,300 -1,200 Descending Albuquerque Center
09:34PM 34.0228 -112.1217 169° South 324 373 12,100 -1,200 Descending Albuquerque Center
09:35PM 33.9422 -112.1022 167° South 313 360 11,000 -600 Descending Albuquerque Center
09:36PM 33.8597 -112.0800 169° South 308 354 11,000 -420 Level Albuquerque Center
09:36PM 33.8000 -112.0667 171° South 302 348 10,400 -660 Descending Phoenix TRACON
09:37PM 33.7167 -112.0500 171° South 307 353 10,000 -240 Descending Phoenix TRACON
09:38PM 33.6333 -112.0333 140° Southeast 302 348 10,000 -120 Level Phoenix TRACON
09:39PM 33.5833 -111.9833 132° Southeast 259 298 9,800 -840 Descending Phoenix TRACON
09:40PM 33.5333 -111.9167 90° East 266 306 8,400 -1,200 Descending Phoenix TRACON
09:41PM 33.5333 -111.8167 112° Southeast 237 273 7,400 -960 Descending Phoenix TRACON
09:42PM 33.5167 -111.7667 180° South 190 219 6,400 -1,500 Descending Phoenix TRACON
09:43PM 33.4667 -111.7667 253° West 188 216 4,500 -1,320 Descending Phoenix TRACON
09:44PM 33.4500 -111.8333 253° West 185 213 3,800 -720 Descending Phoenix TRACON